Aviation Digital Data Service (ADDS)

Output produced by METARs form (1206 UTC 24 February 2018)
found at http://www.aviationweather.gov/adds/metars/
 
KPAE 241120Z 2412/2512 17012KT P6SM VCSH BKN006 OVC012 
     TEMPO 2412/2416 -SHRASN OVC005 
     FM241800 32006KT P6SM VCSH OVC015 
     FM242100 30006KT P6SM VCSH BKN035 
     FM250600 18016G25KT P6SM -RA OVC012
       
TAF KPAM 241100Z 2411/2517 12006KT 8000 BR FEW005 QNH3017INS 
     BECMG 2414/2415 15012KT 9999 NSW SCT030 QNH3008INS 
     BECMG 2423/2424 15009KT 9999 FEW005 FEW050 QNH3009INS 
     BECMG 2504/2505 18006KT 0800 FG BKN005 QNH3005INS 
     BECMG 2509/2510 18006KT 8000 BR FEW005 QNH3004INS 
     BECMG 2514/2515 18012KT 9999 NSW SCT030 QNH3006INS TX26/2421Z TN17/2412Z
       
KPBF 241155Z 2412/2512 18007KT P6SM SCT007 OVC015 
     TEMPO 2412/2415 BKN007 
     FM241500 18012G20KT P6SM VCSH OVC020 
     FM242000 18015G25KT 6SM SHRA VCTS OVC025CB 
     TEMPO 2422/2501 VRB20G30KT 2SM TSRA BR OVC015CB 
     FM250300 24014G22KT P6SM VCSH SCT020 BKN100 
     FM250600 30009KT P6SM SCT100 BKN250
       
KPBG 241139Z 2412/2512 29006KT P6SM OVC045 
     FM242000 34008KT P6SM BKN250 
     FM242300 VRB04KT P6SM SCT250 
     FM251000 12008KT P6SM VCSH BKN130 
     FM251100 13010KT 1 1/2SM -SN BR OVC090
       
KPBI 241120Z 2412/2512 09007KT P6SM VCSH SCT025 BKN050 
     FM241400 11015KT P6SM FEW025 SCT050 
     FM250000 11010KT P6SM FEW025 SCT040 
     FM250600 12007KT P6SM FEW030 SCT040
       
KPDK 241136Z 2412/2512 19003KT P6SM FEW060 BKN070 
     TEMPO 2412/2414 20006KT BKN030 
     FM241500 19010KT P6SM BKN040 
     FM241900 21010G15KT P6SM BKN050 
     FM250200 19008KT P6SM SCT050 BKN250 
     FM250600 20008KT P6SM OVC100 
     FM251100 21008KT P6SM -SHRA BKN025
       
KPDT 241120Z 2412/2512 22012KT P6SM -SHSN OVC040 
     FM241700 24014G22KT P6SM -SHRASN OVC040 
     FM242100 27016G25KT P6SM BKN050
       
KPDX 241144Z 2412/2512 21012G24KT P6SM -SHRA SCT025 OVC040 
     TEMPO 2412/2414 -SHRA SCT015 OVC025 
     FM241600 24012KT P6SM -SHRA SCT025 OVC040 
     FM241800 27010G18KT P6SM VCSH SCT025 OVC045 
     FM250000 27007KT P6SM BKN050 BKN080 
     FM251000 20011KT P6SM -RA OVC040
       
KPGA 241120Z 2412/2512 28016G17KT P6SM SKC 
     FM241400 VRB05KT P6SM SKC 
     FM242300 27012KT P6SM SCT100 BKN250
       
KPGD 241130Z 2412/2512 09003KT 6SM BR SCT070 
     FM241300 12008KT P6SM SCT025 
     FM242000 18008KT P6SM SCT030 BKN050 
     FM250200 13003KT P6SM SCT060 
     FM250900 VRB03KT 3SM BR FEW015 FEW060
       
KPGV 241138Z 2412/2512 22007KT 6SM BR BKN005 
     TEMPO 2412/2413 3SM BR BKN003 
     FM241300 22006KT P6SM BKN007 
     FM241500 22008KT P6SM BKN015 
     FM241630 23010KT P6SM SCT035 
     FM250600 20009KT P6SM SCT007 AMD LTD TO CLD VIS AND WIND
       
KPHF 241159Z 2412/2512 22008KT P6SM BKN004 
     FM241600 22010KT P6SM BKN025 
     FM242000 22009KT P6SM SCT060 
     FM250000 20005KT P6SM SCT070 
     FM250900 21009KT 4SM BR SCT045
       
KPHL 241121Z 2412/2518 VRB03KT 6SM BR OVC008 
     TEMPO 2412/2414 4SM BR OVC004 
     FM241400 VRB02KT P6SM OVC012 
     FM241800 VRB03KT 6SM BR OVC025 
     TEMPO 2418/2421 4SM -RA BR 
     FM242100 02005KT 4SM -RA BR OVC015 
     FM250000 06006KT 3SM -DZ BR OVC012 
     FM250600 08009KT 3SM -RA OVC007
       
KPHX 241120Z 2412/2518 26004KT P6SM SKC 
     FM250600 11005KT P6SM SKC
       
KPIA 241129Z 2412/2512 05012KT 6SM -SHRA BR SCT015 BKN045 OVC060 
     TEMPO 2412/2414 BKN015 
     FM241400 08015KT 4SM BR VCSH OVC008 
     FM241600 09011KT P6SM OVC010 
     FM242200 12009KT 5SM -SHRA BR OVC008 
     FM250300 17011G23KT P6SM VCSH OVC008 WS020/20040KT 
     FM250600 26016G30KT P6SM BKN008 
     FM250800 26016G30KT P6SM BKN020
       
KPIE 241130Z 2412/2512 10005KT P6SM FEW020 
     FM241400 12007KT P6SM SCT025 
     FM242100 27008KT P6SM SCT030 BKN050 
     FM250200 14005KT P6SM SCT060 
     FM251000 13002KT 6SM BR FEW015 FEW060
       
KPIH 241120Z 2412/2512 22019KT P6SM BKN070 OVC100 
     FM241600 20015G25KT 6SM -SHSN BKN025 OVC040 
     FM242100 22020G30KT 2SM -SN BLSN OVC010 
     FM250700 22017G27KT 4SM -SN BLSN SCT015 BKN100
       
KPIR 241128Z 2412/2512 14007KT P6SM OVC080 
     FM241500 12007KT 1 1/2SM -SN OVC015 
     FM242100 26007KT 3SM -SN OVC015 
     FM242300 29005KT P6SM BKN050 
     FM250300 26008KT P6SM SKC
       
KPIT 241150Z 2412/2518 01009KT 6SM -RA OVC010 
     FM241700 04006KT 3SM SHRA OVC015 
     FM250400 12008KT 2SM +SHRA OVC008 
     FM250600 14009KT 2SM +SHRA OVC008 WS020/19035KT 
     FM251400 21011G21KT 3SM -SHRA OVC025
       
KPKB 241120Z 2412/2512 01006KT 4SM -RA BR SCT004 BKN035 
     FM241500 02005KT 3SM -RA SCT018 BKN035 
     FM241900 03006KT P6SM SCT018 BKN035 
     FM250400 15006KT P6SM -SHRA OVC050 
     FM250700 20008G14KT 5SM -SHRA OVC035
       
KPMD 241125Z 2412/2512 VRB05KT P6SM SKC 
     FM241800 28008KT P6SM SKC 
     FM242100 27015G25KT P6SM SKC 
     FM242300 27025G35KT 6SM BLDU SKC 
     FM250400 26018G28KT P6SM SKC 
     FM250900 28012KT P6SM SKC
       
KPNA 241124Z 2412/2512 30006KT P6SM FEW050 BKN080 
     FM242200 28008KT 4SM -SN SCT015 OVC030 
     FM250400 31008KT P6SM SCT030 BKN060 AMD LTD TO CLD VIS AND WIND
       
KPNE 241121Z 2412/2512 VRB03KT 6SM BR OVC012 
     TEMPO 2412/2414 4SM BR OVC005 
     FM241600 VRB03KT P6SM OVC020 
     FM241800 VRB03KT P6SM OVC030 
     TEMPO 2418/2421 5SM -RA BR 
     FM242100 03004KT 4SM -RA BR OVC015 
     FM250100 06006KT 4SM -DZ BR OVC015 
     FM250600 09008KT 3SM -RA BR OVC007
       
KPNS 241120Z 2412/2512 13007KT P6SM SKC 
     FM241500 16009KT P6SM OVC015 
     FM241800 17013KT P6SM BKN030 
     FM250200 18007KT P6SM BKN015 
     FM250800 18006KT 3SM BR VCSH OVC009
       
TAF AMD KPOB 241041Z 2410/2516 24007KT 9999 OVC009 QNH3023INS 
     TEMPO 2411/2413 3200 BR 
     BECMG 2415/2416 21010G18KT 9999 SCT015 BKN060 QNH3009INS 
     BECMG 2500/2501 18006KT 9999 SCT090 QNH3003INS 
     BECMG 2506/2507 20012KT 9999 SCT003 BKN010 510052 QNH3013INS 
     BECMG 2508/2509 20012KT 9999 OVC003 WS020/22040KT QNH3015INS 
     BECMG 2514/2515 22012KT 9999 SCT005 BKN012 QNH3016INS TX27/2420Z TN16/2411Z
       
KPOU 241150Z 2412/2512 VRB03KT 3SM BR SCT002 WS020/28035KT 
     TEMPO 2412/2413 1/4SM FG VV002 
     FM241300 30007KT P6SM BKN120 
     FM242000 36005KT P6SM -RA OVC060 
     FM250700 00000KT 4SM -RA BR BKN008 OVC012
       
KPQI 241140Z 2412/2512 24010KT P6SM SCT025 BKN050 
     TEMPO 2412/2414 BKN025 
     FM241400 27007KT P6SM BKN050 
     FM241600 32012G20KT P6SM SCT070 
     FM250000 34008KT P6SM SKC
       
KPRB 241125Z 2412/2512 VRB03KT P6SM SKC 
     FM242300 32012KT P6SM SKC 
     FM250800 35007KT P6SM SKC
       
KPRC 241120Z 2412/2512 VRB05KT P6SM SKC 
     FM241800 26011KT P6SM SKC 
     FM250300 21007KT P6SM BKN200
       
KPSC 241120Z 2412/2512 23010KT P6SM -SHRASN OVC045 
     FM241800 26014G24KT P6SM BKN060
       
KPSF 241120Z 2412/2512 29014G23KT P6SM BKN008 OVC015 
     FM241400 30011G24KT P6SM SCT015 OVC025 
     FM241700 31010G20KT P6SM SCT035 BKN140 
     FM242300 VRB04KT P6SM BKN110 
     FM250700 08006KT P6SM OVC070 
     PROB30 2509/2512 3SM -SNPL BR BKN015 OVC025
       
KPSM 241120Z 2412/2512 28010KT P6SM SCT250 
     FM250400 02007KT P6SM FEW250 
     FM251000 08010KT P6SM -SN BKN050
       
KPSP 241120Z 2412/2512 VRB06KT P6SM SKC
       
KPUB 241123Z 2412/2512 VRB06KT 1SM BR OVC006 
     TEMPO 2413/2415 3SM BR SCT006 BKN020 
     FM241500 32008KT P6SM FEW020 SCT100 
     FM241800 30018G28KT P6SM SKC 
     FM250100 29008KT P6SM FEW200
       
KPUW 241132Z 2412/2512 10009KT 6SM -SN BR OVC028 
     FM241400 12012KT 2SM -SN BR OVC015 
     FM242000 26011G20KT 6SM -SN OVC015 
     FM250200 25008KT P6SM BKN015 
     FM250900 22018G28KT P6SM BKN015
       
KPVD 241141Z 2412/2512 27004KT P6SM SCT035 
     FM241400 29010KT P6SM BKN250 
     FM241900 33005KT P6SM -RA OVC070 
     FM250100 VRB06KT P6SM OVC050 
     FM250900 07008KT P6SM -RA OVC060
       
KPVU 241141Z 2412/2512 VRB04KT P6SM SCT010 BKN120 
     FM241400 VRB04KT P6SM SCT040 BKN080 
     FM242200 VRB04KT P6SM VCSH SCT020 BKN040 
     FM250500 32010KT 2SM -SN BR SCT007 BKN015 
     FM251000 VRB04KT P6SM VCSH SCT020 BKN040
       
KPWM 241120Z 2412/2512 27009KT P6SM FEW250 
     FM250000 36007KT P6SM SKC 
     FM251100 08012G20KT P6SM BKN050
       
KPWT 241120Z 2412/2512 20012G20KT P6SM VCSH BKN004 OVC012 
     TEMPO 2412/2416 -SHRASN BKN004 
     FM241800 24012G20KT P6SM VCSH BKN020 OVC030 
     FM242200 20010KT P6SM BKN040 
     FM250600 19014G23KT P6SM -RA OVC010